Terminal Aerodrome Forecast
Issued by NWS

Home | Current Version | Previous Version | Text Only | Print | Product List | Glossary On
Versions: 1 2 3 4 5 6 7 8 9 10 11 12 13 14 15
000
FTUS45 KGJT 241120
TAFTEX
TAF
KTEX 241120Z 2412/2512 14007KT P6SM SKC
     FM241600 28005KT P6SM SKC
     FM241800 28009KT P6SM SKC
     FM250200 32006KT P6SM SKC
     FM250500 10005KT P6SM SKC=

USA.gov is the U.S. government's official web portal to all federal, state and local government web resources and services.